Time;durP1;ratioP1;P1;durP2;ratioP2;P2;SDS_P1;SDS_P2;PMS_P1;PMS_P2;Temp;Humidity;BMP_temperature;BMP_pressure;BME280_temperature;BME280_humidity;BME280_pressure;Samples;Min_cycle;Max_cycle;Signal;HPM_P1;HPM_P2
2023/09/06 00:00:42;;;;;;;6.20;5.28;;;;;;;18.74;100.00;96539.66;5096759;28;20107;-69
2023/09/06 00:03:08;;;;;;;7.25;5.32;;;;;;;18.71;100.00;96531.19;5101453;27;20027;-69
2023/09/06 00:05:33;;;;;;;8.02;5.10;;;;;;;18.69;100.00;96541.22;5106264;27;20027;-69
2023/09/06 00:07:59;;;;;;;5.63;5.13;;;;;;;18.61;100.00;96540.22;5102566;27;20024;-69
2023/09/06 00:10:25;;;;;;;15.10;5.70;;;;;;;18.60;100.00;96533.22;5102343;27;20031;-69
2023/09/06 00:12:50;;;;;;;7.38;5.95;;;;;;;18.61;100.00;96534.06;5110296;27;20058;-69
2023/09/06 00:15:18;;;;;;;8.23;5.32;;;;;;;18.59;100.00;96533.41;5108338;27;20051;-69
2023/09/06 00:17:44;;;;;;;9.15;5.60;;;;;;;18.57;100.00;96535.41;5106846;27;20020;-69
2023/09/06 00:20:20;;;;;;;8.63;5.45;;;;;;;18.54;100.00;96533.06;5107189;27;20038;-69
2023/09/06 00:22:53;;;;;;;5.65;5.13;;;;;;;18.51;100.00;96533.41;5105809;27;20459;-67
2023/09/06 00:25:18;;;;;;;9.25;5.72;;;;;;;18.50;100.00;96524.59;5088804;28;20023;-67
2023/09/06 00:27:44;;;;;;;7.70;5.35;;;;;;;18.46;100.00;96520.63;5107691;27;20027;-68
2023/09/06 00:30:09;;;;;;;6.13;5.53;;;;;;;18.42;100.00;96522.78;5100677;27;20508;-68
2023/09/06 00:32:34;;;;;;;6.13;5.57;;;;;;;18.40;100.00;96526.63;5101508;27;20047;-69
2023/09/06 00:35:00;;;;;;;6.05;4.90;;;;;;;18.35;100.00;96531.63;5103651;28;20034;-69
2023/09/06 00:37:34;;;;;;;6.65;5.35;;;;;;;18.32;100.00;96535.47;5103194;28;20070;-69
2023/09/06 00:40:00;;;;;;;6.57;5.67;;;;;;;18.31;100.00;96520.47;5117267;27;20027;-69
2023/09/06 00:42:30;;;;;;;11.15;5.72;;;;;;;18.32;100.00;96516.81;5101047;27;20598;-68
2023/09/06 00:44:55;;;;;;;6.05;5.47;;;;;;;18.33;100.00;96518.47;5107722;27;20029;-68
2023/09/06 00:47:21;;;;;;;7.03;5.53;;;;;;;18.31;100.00;96516.00;5097040;27;20111;-69
2023/09/06 00:49:47;;;;;;;7.25;5.55;;;;;;;18.33;100.00;96505.97;5112401;27;20027;-69
2023/09/06 00:52:16;;;;;;;6.80;5.28;;;;;;;18.33;100.00;96500.66;5101067;28;20649;-68
2023/09/06 00:54:41;;;;;;;6.32;5.50;;;;;;;18.32;100.00;96506.13;5101176;28;20030;-69
2023/09/06 00:57:07;;;;;;;7.38;5.72;;;;;;;18.28;100.00;96508.34;5103391;28;20035;-68
2023/09/06 00:59:33;;;;;;;7.32;5.60;;;;;;;18.29;100.00;96504.66;5099844;28;20490;-68
2023/09/06 01:01:59;;;;;;;5.78;5.28;;;;;;;18.25;100.00;96510.50;5106364;28;20030;-69
2023/09/06 01:04:25;;;;;;;6.30;5.55;;;;;;;18.18;100.00;96511.19;5096467;28;20570;-68
2023/09/06 01:06:57;;;;;;;5.90;5.30;;;;;;;18.14;100.00;96501.88;5104936;28;20027;-68
2023/09/06 01:09:23;;;;;;;7.10;5.97;;;;;;;18.14;100.00;96501.88;5105125;28;20035;-69
2023/09/06 01:11:48;;;;;;;7.10;5.30;;;;;;;18.14;100.00;96490.38;5101790;28;20019;-69
2023/09/06 01:14:14;;;;;;;8.07;5.60;;;;;;;18.16;100.00;96491.03;5108603;28;20028;-68
2023/09/06 01:16:45;;;;;;;6.55;5.75;;;;;;;18.16;100.00;96480.38;5102502;28;20158;-68
2023/09/06 01:19:13;;;;;;;5.68;5.05;;;;;;;18.09;100.00;96484.72;5103625;28;20024;-69
2023/09/06 01:22:00;;;;;;;6.75;5.55;;;;;;;18.04;100.00;96478.09;5102420;28;20035;-69
2023/09/06 01:24:28;;;;;;;6.50;5.30;;;;;;;18.04;100.00;96477.22;5096200;28;20136;-68
2023/09/06 01:26:53;;;;;;;6.60;6.00;;;;;;;18.02;100.00;96477.44;5110034;28;20454;-68
2023/09/06 01:29:19;;;;;;;6.53;5.80;;;;;;;17.99;100.00;96480.38;5096530;28;20020;-69
2023/09/06 01:31:44;;;;;;;6.82;5.63;;;;;;;17.98;100.00;96475.22;5107766;28;20055;-69
2023/09/06 01:34:10;;;;;;;10.30;5.88;;;;;;;17.93;100.00;96485.56;5110918;28;20071;-68
2023/09/06 01:36:35;;;;;;;7.13;5.50;;;;;;;17.87;100.00;96463.91;5106190;28;20020;-68
2023/09/06 01:39:00;;;;;;;7.05;5.65;;;;;;;17.84;100.00;96463.44;5102730;28;20674;-68
2023/09/06 01:41:26;;;;;;;7.97;5.60;;;;;;;17.84;100.00;96453.59;5106138;28;20494;-68
2023/09/06 01:43:54;;;;;;;9.35;5.88;;;;;;;17.81;100.00;96453.13;5107393;28;20046;-69
2023/09/06 01:46:20;;;;;;;5.88;5.45;;;;;;;17.81;100.00;96447.78;5100831;28;20034;-68
2023/09/06 01:48:46;;;;;;;6.63;5.82;;;;;;;17.84;100.00;96442.94;5104486;28;20040;-68
2023/09/06 01:51:13;;;;;;;6.20;5.65;;;;;;;17.85;100.00;96427.81;5101290;28;20032;-68
2023/09/06 01:53:38;;;;;;;7.03;5.70;;;;;;;17.81;100.00;96442.47;5103703;28;20028;-68
2023/09/06 01:56:04;;;;;;;7.10;6.47;;;;;;;17.83;100.00;96432.47;5106799;28;20063;-68
2023/09/06 01:58:32;;;;;;;9.88;6.18;;;;;;;17.85;100.00;96417.97;5100608;28;20023;-68
2023/09/06 02:00:58;;;;;;;6.53;5.78;;;;;;;17.87;100.00;96417.81;5101658;28;20052;-68
2023/09/06 02:03:25;;;;;;;8.15;5.65;;;;;;;17.83;100.00;96413.84;5101719;28;20492;-69
2023/09/06 02:05:50;;;;;;;6.68;5.80;;;;;;;17.79;100.00;96402.69;5098682;28;20070;-68
2023/09/06 02:08:16;;;;;;;10.55;5.82;;;;;;;17.76;100.00;96398.50;5099384;28;20024;-68
2023/09/06 02:10:41;;;;;;;6.93;6.07;;;;;;;17.76;100.00;96397.69;5107295;28;20058;-68
2023/09/06 02:13:07;;;;;;;7.60;5.82;;;;;;;17.73;100.00;96393.53;5095823;28;20035;-69
2023/09/06 02:15:32;;;;;;;7.35;6.20;;;;;;;17.73;100.00;96392.72;5098169;28;20558;-69
2023/09/06 02:17:58;;;;;;;10.52;6.18;;;;;;;17.68;100.00;96390.56;5099132;28;20404;-68
2023/09/06 02:20:26;;;;;;;11.50;6.47;;;;;;;17.67;100.00;96394.22;5104280;28;20028;-68
2023/09/06 02:22:57;;;;;;;8.55;6.15;;;;;;;17.64;100.00;96383.91;5118530;28;20104;-69
2023/09/06 02:25:29;;;;;;;6.40;5.75;;;;;;;17.60;100.00;96391.41;5105237;27;20031;-66
2023/09/06 02:27:55;;;;;;;7.70;6.55;;;;;;;17.59;100.00;96402.22;5114473;27;20480;-69
2023/09/06 02:30:21;;;;;;;6.57;5.90;;;;;;;17.57;100.00;96396.22;5100419;27;20133;-68
2023/09/06 02:32:48;;;;;;;8.45;6.28;;;;;;;17.58;100.00;96381.94;5108737;27;20071;-68
2023/09/06 02:35:13;;;;;;;6.65;6.07;;;;;;;17.58;100.00;96380.09;5102259;28;20028;-68
2023/09/06 02:37:38;;;;;;;6.60;5.88;;;;;;;17.55;100.00;96391.06;5107490;27;20024;-68
2023/09/06 02:40:12;;;;;;;7.97;6.22;;;;;;;17.51;100.00;96375.59;5099160;28;20028;-68
2023/09/06 02:42:39;;;;;;;6.63;5.95;;;;;;;17.54;100.00;96372.59;5112157;27;20491;-68
2023/09/06 02:45:11;;;;;;;9.18;6.18;;;;;;;17.54;100.00;96372.59;5110186;27;20104;-68
2023/09/06 02:47:48;;;;;;;9.10;6.18;;;;;;;17.49;100.00;96367.81;5101400;27;20016;-68
2023/09/06 02:50:15;;;;;;;7.40;5.88;;;;;;;17.51;100.00;96357.81;5102568;27;20791;-68
2023/09/06 02:52:44;;;;;;;7.35;6.10;;;;;;;17.53;100.00;96365.63;5111228;27;20033;-69
2023/09/06 02:55:13;;;;;;;8.13;6.10;;;;;;;17.46;100.00;96365.44;5110629;27;20506;-68
2023/09/06 02:57:40;;;;;;;7.68;5.85;;;;;;;17.38;100.00;96371.66;5109719;27;20572;-68
2023/09/06 03:00:25;;;;;;;7.88;6.07;;;;;;;17.37;100.00;96369.97;5108950;27;20085;-68
2023/09/06 03:02:54;;;;;;;7.13;5.82;;;;;;;17.31;100.00;96362.66;5103636;27;20023;-69
2023/09/06 03:05:20;;;;;;;6.90;5.93;;;;;;;17.31;100.00;96349.34;5106116;27;20501;-69
2023/09/06 03:07:48;;;;;;;7.18;6.57;;;;;;;17.23;100.00;96355.50;5100470;27;20035;-69
2023/09/06 03:10:19;;;;;;;8.07;6.45;;;;;;;17.20;100.00;96349.72;5100790;27;20038;-69
2023/09/06 03:12:46;;;;;;;6.95;6.20;;;;;;;17.21;100.00;96343.38;5100401;27;20424;-69
2023/09/06 03:15:13;;;;;;;6.47;5.88;;;;;;;17.23;100.00;96330.75;5103030;27;20019;-69
2023/09/06 03:17:39;;;;;;;7.65;6.50;;;;;;;17.22;100.00;96337.06;5110787;27;20051;-69
2023/09/06 03:20:18;;;;;;;12.70;6.20;;;;;;;17.22;100.00;96329.09;5107781;28;20023;-69
2023/09/06 03:22:47;;;;;;;7.22;5.78;;;;;;;17.18;100.00;96321.44;5113121;27;20008;-69
2023/09/06 03:25:14;;;;;;;6.43;5.78;;;;;;;17.14;100.00;96325.44;5105876;27;20115;-69
2023/09/06 03:27:41;;;;;;;11.07;6.72;;;;;;;17.12;100.00;96322.09;5113190;27;20052;-68
2023/09/06 03:30:08;;;;;;;6.40;5.90;;;;;;;17.10;100.00;96329.41;5098962;27;20020;-69
2023/09/06 03:32:33;;;;;;;7.38;6.53;;;;;;;17.12;100.00;96316.75;5106913;27;20132;-69
2023/09/06 03:34:59;;;;;;;10.38;6.47;;;;;;;17.10;100.00;96313.44;5102911;28;20099;-68
2023/09/06 03:37:28;;;;;;;7.38;6.68;;;;;;;17.07;100.00;96305.81;5110424;27;20519;-68
2023/09/06 03:39:54;;;;;;;7.63;6.30;;;;;;;17.11;100.00;96296.50;5107083;28;20512;-68
2023/09/06 03:42:20;;;;;;;6.80;6.18;;;;;;;17.15;100.00;96287.19;5115303;27;20035;-68
2023/09/06 03:44:46;;;;;;;7.88;6.28;;;;;;;17.13;100.00;96283.88;5101900;27;20028;-69
2023/09/06 03:47:15;;;;;;;7.57;6.40;;;;;;;17.14;100.00;96282.88;5109803;27;20043;-69
2023/09/06 03:49:43;;;;;;;6.22;5.75;;;;;;;17.08;100.00;96278.22;5100083;28;20514;-68
2023/09/06 03:52:10;;;;;;;7.28;6.13;;;;;;;16.99;100.00;96277.38;5112686;28;20052;-68
2023/09/06 03:54:36;;;;;;;9.50;6.43;;;;;;;16.96;100.00;96276.88;5107829;28;20038;-68
2023/09/06 03:57:03;;;;;;;7.78;6.80;;;;;;;16.94;100.00;96269.06;5105287;28;20039;-68
2023/09/06 03:59:28;;;;;;;7.05;6.32;;;;;;;16.96;100.00;96266.25;5113228;27;20023;-68
2023/09/06 04:01:55;;;;;;;7.38;6.57;;;;;;;16.97;100.00;96266.06;5097456;28;20467;-68
2023/09/06 04:04:21;;;;;;;7.20;5.95;;;;;;;16.96;100.00;96259.06;5099538;27;20052;-68
2023/09/06 04:06:47;;;;;;;7.78;6.47;;;;;;;16.95;100.00;96259.25;5101952;27;20036;-68
2023/09/06 04:09:13;;;;;;;8.70;6.60;;;;;;;16.94;100.00;96241.66;5100558;28;20546;-68
2023/09/06 04:11:40;;;;;;;7.32;6.18;;;;;;;16.92;100.00;96241.00;5085199;28;20024;-68
2023/09/06 04:14:05;;;;;;;7.20;6.50;;;;;;;16.85;100.00;96254.13;5105127;27;20079;-68
2023/09/06 04:16:31;;;;;;;8.45;6.90;;;;;;;16.82;100.00;96252.63;5101123;27;20024;-68
2023/09/06 04:18:56;;;;;;;7.03;6.47;;;;;;;16.79;100.00;96252.09;5104387;27;20761;-68
2023/09/06 04:21:22;;;;;;;8.95;6.30;;;;;;;16.71;100.00;96259.09;5096680;28;20527;-68
2023/09/06 04:23:48;;;;;;;11.48;6.63;;;;;;;16.68;100.00;96251.47;5097638;28;20468;-68
2023/09/06 04:26:14;;;;;;;10.13;7.75;;;;;;;16.69;100.00;96237.16;5106214;27;20059;-68
2023/09/06 04:28:40;;;;;;;7.57;6.95;;;;;;;16.70;100.00;96232.69;5104616;28;20039;-68
2023/09/06 04:31:06;;;;;;;7.60;6.90;;;;;;;16.67;100.00;96231.19;5106779;27;20417;-68
2023/09/06 04:33:31;;;;;;;11.63;6.90;;;;;;;16.61;100.00;96224.72;5105324;27;20031;-69
2023/09/06 04:35:57;;;;;;;9.13;7.30;;;;;;;16.62;100.00;96228.22;5103905;28;20055;-68
2023/09/06 04:38:26;;;;;;;7.22;6.53;;;;;;;16.63;100.00;96223.72;5100869;28;20102;-69
2023/09/06 04:40:51;;;;;;;8.50;6.13;;;;;;;16.66;100.00;96210.09;5106221;27;20033;-68
2023/09/06 04:43:18;;;;;;;9.52;6.72;;;;;;;16.68;100.00;96202.75;5108948;28;20011;-68
2023/09/06 04:45:44;;;;;;;11.82;7.00;;;;;;;16.64;100.00;96194.31;5118154;27;20084;-68
2023/09/06 04:48:12;;;;;;;11.52;7.22;;;;;;;16.61;100.00;96195.47;5107701;28;20039;-68
2023/09/06 04:50:39;;;;;;;11.82;6.97;;;;;;;16.60;100.00;96200.97;5104459;27;20069;-68
2023/09/06 04:53:06;;;;;;;7.68;6.88;;;;;;;16.57;100.00;96198.63;5107825;28;20024;-68
2023/09/06 04:55:35;;;;;;;8.82;6.85;;;;;;;16.53;100.00;96184.00;5100510;28;20030;-68
2023/09/06 04:58:01;;;;;;;9.65;6.70;;;;;;;16.56;100.00;96175.69;5109001;27;20031;-68
2023/09/06 05:00:30;;;;;;;14.77;6.63;;;;;;;16.55;100.00;96177.53;5108711;27;20020;-68
2023/09/06 05:02:57;;;;;;;8.77;6.63;;;;;;;16.56;100.00;96163.25;5098495;28;20123;-68
2023/09/06 05:05:23;;;;;;;8.82;7.30;;;;;;;16.54;100.00;96159.94;5103979;28;20031;-68
2023/09/06 05:07:49;;;;;;;9.43;6.60;;;;;;;16.47;100.00;96166.94;5092917;28;20040;-68
2023/09/06 05:10:15;;;;;;;8.23;6.75;;;;;;;16.41;100.00;96160.44;5098809;28;20776;-68
2023/09/06 05:12:40;;;;;;;7.53;6.85;;;;;;;16.42;100.00;96155.94;5101200;28;20031;-68
2023/09/06 05:15:07;;;;;;;10.23;7.22;;;;;;;16.44;100.00;96162.78;5098747;28;20043;-68
2023/09/06 05:17:33;;;;;;;9.25;6.82;;;;;;;16.45;100.00;96153.81;5099625;28;20425;-68
2023/09/06 05:20:32;;;;;;;7.85;7.13;;;;;;;16.45;100.00;96150.28;5101100;28;20164;-68
2023/09/06 05:23:02;;;;;;;9.95;7.45;;;;;;;16.50;100.00;96141.84;5097738;28;20508;-69
2023/09/06 05:25:28;;;;;;;7.80;7.15;;;;;;;16.49;100.00;96145.50;5094503;28;20031;-68
2023/09/06 05:27:56;;;;;;;8.30;7.50;;;;;;;16.47;100.00;96143.81;5110265;28;20032;-68
2023/09/06 05:30:22;;;;;;;8.43;6.72;;;;;;;16.50;100.00;96141.84;5101738;28;20028;-69
2023/09/06 05:32:47;;;;;;;9.32;7.13;;;;;;;16.51;100.00;96141.69;5111657;28;20054;-68
2023/09/06 05:35:13;;;;;;;15.77;7.97;;;;;;;16.49;100.00;96135.69;5103449;28;20079;-68
2023/09/06 05:37:40;;;;;;;8.88;7.35;;;;;;;16.44;100.00;96127.38;5109770;28;20028;-68
2023/09/06 05:40:07;;;;;;;12.48;7.72;;;;;;;16.45;100.00;96129.03;5099167;28;20031;-68
2023/09/06 05:42:32;;;;;;;11.48;8.15;;;;;;;16.50;100.00;96141.84;5105698;28;20055;-69
2023/09/06 05:44:58;;;;;;;11.52;7.25;;;;;;;16.55;100.00;96129.72;5107641;28;20027;-68
2023/09/06 05:47:23;;;;;;;7.95;7.25;;;;;;;16.58;100.00;96118.72;5103787;28;20031;-69
2023/09/06 05:49:52;;;;;;;8.95;7.10;;;;;;;16.64;100.00;96121.69;5107086;28;20547;-68
2023/09/06 05:52:17;;;;;;;13.52;7.13;;;;;;;16.69;100.00;96116.69;5105688;28;20042;-68
2023/09/06 05:54:44;;;;;;;12.20;7.57;;;;;;;16.66;100.00;96119.69;5103411;28;20027;-68
2023/09/06 05:57:10;;;;;;;9.48;7.70;;;;;;;16.70;100.00;96129.03;5098053;28;20477;-68
2023/09/06 05:59:36;;;;;;;10.57;8.20;;;;;;;16.70;100.00;96127.19;5115529;27;20023;-68
2023/09/06 06:02:02;;;;;;;8.80;7.90;;;;;;;16.69;100.00;96128.19;5109376;27;20096;-69
2023/09/06 06:04:28;;;;;;;10.57;8.10;;;;;;;16.71;100.00;96128.84;5101193;27;20104;-68
2023/09/06 06:06:54;;;;;;;8.10;7.30;;;;;;;16.75;100.00;96129.34;5116360;27;20063;-67
2023/09/06 06:09:21;;;;;;;10.95;7.60;;;;;;;16.76;100.00;96131.00;5097977;27;20029;-68
2023/09/06 06:11:47;;;;;;;10.02;7.80;;;;;;;16.82;100.00;96127.66;5104622;27;20035;-68
2023/09/06 06:14:13;;;;;;;8.73;7.97;;;;;;;16.86;100.00;96123.63;5109747;27;20031;-68
2023/09/06 06:16:38;;;;;;;12.80;7.70;;;;;;;16.87;100.00;96129.81;5112052;27;20020;-69
2023/09/06 06:19:04;;;;;;;8.75;7.95;;;;;;;16.89;100.00;96133.94;5113167;27;20028;-68
2023/09/06 06:21:31;;;;;;;9.80;7.85;;;;;;;16.94;100.00;96129.94;5107254;27;20110;-68
2023/09/06 06:23:57;;;;;;;12.40;8.10;;;;;;;17.00;100.00;96121.31;5104980;28;20102;-68
2023/09/06 06:26:23;;;;;;;10.38;8.15;;;;;;;17.02;100.00;96119.31;5108484;27;20031;-68
2023/09/06 06:28:49;;;;;;;9.40;8.38;;;;;;;17.08;100.00;96123.13;5107720;27;20118;-68
2023/09/06 06:31:14;;;;;;;10.80;8.52;;;;;;;17.09;100.00;96130.09;5104258;28;20048;-68
2023/09/06 06:33:40;;;;;;;14.77;8.60;;;;;;;17.10;100.00;96137.88;5110019;27;20427;-68
2023/09/06 06:36:05;;;;;;;11.95;8.32;;;;;;;17.15;100.00;96135.56;5103313;27;20038;-68
2023/09/06 06:38:31;;;;;;;16.05;8.45;;;;;;;17.19;100.00;96136.03;5103266;27;20023;-68
2023/09/06 06:40:57;;;;;;;13.80;8.57;;;;;;;17.26;100.00;96141.50;5101049;27;20030;-68
2023/09/06 06:43:22;;;;;;;13.90;9.52;;;;;;;17.29;100.00;96141.13;5103584;27;20020;-68
2023/09/06 06:45:54;;;;;;;10.02;9.02;;;;;;;17.26;100.00;96157.44;5102823;28;20622;-69
2023/09/06 06:48:20;;;;;;;10.07;9.10;;;;;;;17.45;100.00;96149.06;5105957;28;20036;-68
2023/09/06 06:50:46;;;;;;;16.17;10.02;;;;;;;17.88;100.00;96115.84;5109347;28;20040;-69
2023/09/06 06:53:11;;;;;;;25.75;12.38;;;;;;;18.41;100.00;96104.44;5105408;27;20028;-68
2023/09/06 06:55:37;;;;;;;19.05;9.75;;;;;;;18.85;100.00;96098.31;5103232;27;20028;-69
2023/09/06 06:58:03;;;;;;;13.68;9.63;;;;;;;19.21;100.00;96122.63;5098941;28;20365;-68
2023/09/06 07:00:31;;;;;;;11.93;8.73;;;;;;;19.51;100.00;96152.78;5100272;27;20046;-69
2023/09/06 07:02:57;;;;;;;10.20;7.90;;;;;;;19.75;100.00;96185.53;5102262;28;20051;-69
2023/09/06 07:05:23;;;;;;;10.50;7.13;;;;;;;20.07;100.00;96210.13;5114575;27;20030;-69
2023/09/06 07:07:48;;;;;;;10.82;8.15;;;;;;;20.47;100.00;96244.50;5098803;27;20023;-69
2023/09/06 07:10:15;;;;;;;16.95;9.43;;;;;;;20.82;100.00;96267.88;5098049;27;20070;-69
2023/09/06 07:12:40;;;;;;;8.40;6.13;;;;;;;21.37;100.00;96269.91;5101094;27;20055;-69
2023/09/06 07:15:06;;;;;;;9.05;6.10;;;;;;;21.64;100.00;96270.06;5107933;27;20091;-69
2023/09/06 07:17:32;;;;;;;9.98;6.03;;;;;;;22.08;100.00;96260.81;5109926;27;20093;-69
2023/09/06 07:19:58;;;;;;;11.75;5.70;;;;;;;22.50;100.00;96263.44;5101550;28;20024;-69
2023/09/06 07:22:24;;;;;;;10.07;6.53;;;;;;;22.94;100.00;96241.59;5102518;28;20020;-69
2023/09/06 07:24:50;;;;;;;11.02;6.45;;;;;;;23.20;100.00;96230.00;5112108;27;20160;-69
2023/09/06 07:27:15;;;;;;;6.97;6.40;;;;;;;23.32;100.00;96227.53;5115699;27;20047;-70
2023/09/06 07:29:40;;;;;;;8.27;6.35;;;;;;;23.42;100.00;96229.78;5102471;28;20089;-69
2023/09/06 07:32:06;;;;;;;11.70;6.45;;;;;;;23.12;100.00;96255.22;5093863;28;20052;-67
2023/09/06 07:34:32;;;;;;;5.82;5.20;;;;;;;23.07;100.00;96246.94;5106845;27;20055;-69
2023/09/06 07:36:57;;;;;;;7.22;6.53;;;;;;;22.99;100.00;96250.69;5110406;27;20035;-70
2023/09/06 07:39:23;;;;;;;8.38;5.03;;;;;;;22.80;100.00;96238.91;5101338;27;20028;-69
2023/09/06 07:41:50;;;;;;;5.93;4.75;;;;;;;22.58;100.00;96246.34;5103939;27;20487;-69
2023/09/06 07:44:17;;;;;;;5.70;4.93;;;;;;;22.54;100.00;96258.47;5105013;28;20034;-70
2023/09/06 07:46:48;;;;;;;11.00;6.03;;;;;;;22.44;100.00;96264.25;5114400;27;20027;-69
2023/09/06 07:49:18;;;;;;;6.75;5.43;;;;;;;22.35;100.00;96270.81;5116999;27;20023;-69
2023/09/06 07:51:44;;;;;;;6.85;5.88;;;;;;;22.31;100.00;96278.41;5116144;27;20036;-70
2023/09/06 07:54:09;;;;;;;4.80;4.45;;;;;;;22.40;100.00;96279.91;5099950;27;20027;-70
2023/09/06 07:56:35;;;;;;;8.57;5.20;;;;;;;22.52;100.00;96272.13;5107723;27;20024;-70
2023/09/06 07:59:00;;;;;;;8.52;5.20;;;;;;;22.82;100.00;96244.91;5103004;27;20016;-69
2023/09/06 08:01:25;;;;;;;13.50;5.57;;;;;;;22.67;100.00;96238.91;5108003;28;20095;-69
2023/09/06 08:03:51;;;;;;;9.68;4.90;;;;;;;22.89;100.00;96229.63;5098864;27;20020;-70
2023/09/06 08:06:17;;;;;;;11.57;5.57;;;;;;;23.16;100.00;96218.03;5112210;27;20031;-70
2023/09/06 08:08:43;;;;;;;10.50;5.03;;;;;;;23.52;100.00;96195.25;5110405;27;20027;-70
2023/09/06 08:11:09;;;;;;;8.10;5.25;;;;;;;24.00;100.00;96194.03;5114855;27;20031;-69
2023/09/06 08:13:34;;;;;;;11.90;5.70;;;;;;;24.38;100.00;96191.53;5103876;27;20058;-70
2023/09/06 08:16:00;;;;;;;10.57;5.55;;;;;;;24.38;100.00;96165.47;5107115;27;20806;-70
2023/09/06 08:18:27;;;;;;;8.00;4.43;;;;;;;24.44;100.00;96169.16;5107221;27;20106;-70
2023/09/06 08:20:52;;;;;;;6.13;4.75;;;;;;;24.31;100.00;96175.44;5102414;27;20024;-70
2023/09/06 08:23:18;;;;;;;19.52;4.60;;;;;;;24.25;100.00;96177.16;5110614;27;20492;-70
2023/09/06 08:25:43;;;;;;;6.50;4.85;;;;;;;24.09;100.00;96183.03;5110521;27;20585;-70
2023/09/06 08:28:09;;;;;;;7.72;4.70;;;;;;;24.20;100.00;96174.25;5107495;27;20129;-70
2023/09/06 08:30:34;;;;;;;7.55;4.80;;;;;;;24.38;100.00;96180.78;5109458;28;20070;-69
2023/09/06 08:32:59;;;;;;;7.38;4.68;;;;;;;24.55;100.00;96168.44;5102727;27;20047;-69
2023/09/06 08:35:27;;;;;;;7.22;5.00;;;;;;;24.58;100.00;96183.34;5102188;27;20161;-69
2023/09/06 08:37:53;;;;;;;6.13;4.78;;;;;;;24.25;100.00;96185.22;5111545;28;20042;-70
2023/09/06 08:40:20;;;;;;;5.88;5.28;;;;;;;24.26;100.00;96196.78;5102792;27;20028;-69
2023/09/06 08:42:45;;;;;;;6.07;4.72;;;;;;;24.37;100.00;96176.44;5114894;27;20066;-69
2023/09/06 08:45:11;;;;;;;6.18;4.80;;;;;;;24.26;100.00;96153.75;5098943;28;20015;-69
2023/09/06 08:47:41;;;;;;;10.20;4.85;;;;;;;24.05;100.00;96171.06;5100744;27;20024;-69
2023/09/06 08:50:10;;;;;;;8.98;4.35;;;;;;;24.17;100.00;96188.16;5105246;28;20034;-69
2023/09/06 08:52:41;;;;;;;7.78;5.18;;;;;;;24.43;100.00;96173.69;5103765;28;20023;-70
2023/09/06 08:55:09;;;;;;;5.30;4.53;;;;;;;24.70;100.00;96170.78;5110497;28;20042;-69
2023/09/06 08:57:35;;;;;;;7.68;5.00;;;;;;;25.00;100.00;96163.94;5105696;28;20506;-69
2023/09/06 09:00:03;;;;;;;8.27;4.60;;;;;;;25.34;100.00;96139.34;5105046;27;20703;-69
2023/09/06 09:02:28;;;;;;;5.30;4.68;;;;;;;24.68;100.00;96155.94;5109989;28;20034;-69
2023/09/06 09:04:54;;;;;;;5.22;4.70;;;;;;;24.51;100.00;96161.84;5099977;28;20024;-69
2023/09/06 09:07:20;;;;;;;6.50;4.93;;;;;;;24.24;100.00;96171.97;5102723;28;20032;-69
2023/09/06 09:10:07;;;;;;;6.82;4.85;;;;;;;24.02;100.00;96173.16;5079269;28;20527;-69
2023/09/06 09:12:34;;;;;;;6.90;4.72;;;;;;;23.84;100.00;96181.06;5104439;28;20063;-69
2023/09/06 09:15:00;;;;;;;8.52;4.45;;;;;;;23.93;100.00;96185.16;5102685;28;20027;-69
2023/09/06 09:17:27;;;;;;;4.95;4.47;;;;;;;24.00;100.00;96179.75;5105361;28;20032;-68
2023/09/06 09:19:57;;;;;;;8.85;4.88;;;;;;;24.02;100.00;96181.22;5109424;28;20028;-68
2023/09/06 09:22:31;;;;;;;6.05;5.05;;;;;;;24.00;100.00;96175.19;5108107;28;20094;-68
2023/09/06 09:25:02;;;;;;;5.50;4.60;;;;;;;23.98;100.00;96177.25;5105439;28;20080;-69
2023/09/06 09:27:28;;;;;;;7.47;5.10;;;;;;;23.74;100.00;96168.09;5111112;28;20541;-69
2023/09/06 09:30:00;;;;;;;6.47;5.13;;;;;;;23.84;100.00;96181.88;5107253;28;20031;-69
2023/09/06 09:32:26;;;;;;;13.23;5.43;;;;;;;23.87;100.00;96180.63;5117644;28;20051;-69
2023/09/06 09:34:55;;;;;;;6.28;4.93;;;;;;;23.72;100.00;96180.91;5106476;27;20038;-69
2023/09/06 09:37:22;;;;;;;6.63;5.30;;;;;;;23.66;100.00;96171.03;5112089;27;20026;-69
2023/09/06 09:39:48;;;;;;;6.43;5.38;;;;;;;23.61;100.00;96169.78;5108834;27;20030;-69
2023/09/06 09:42:14;;;;;;;7.97;5.30;;;;;;;23.80;100.00;96158.34;5111352;27;20027;-69
2023/09/06 09:44:40;;;;;;;7.75;5.00;;;;;;;23.62;100.00;96162.56;5113253;27;20024;-69
2023/09/06 09:47:14;;;;;;;6.97;4.97;;;;;;;23.57;100.00;96154.31;5112807;27;20590;-69
2023/09/06 09:49:41;;;;;;;5.88;5.28;;;;;;;23.67;100.00;96165.44;5112913;27;20686;-70
2023/09/06 09:52:17;;;;;;;6.22;5.35;;;;;;;23.74;100.00;96157.34;5105126;27;20667;-69
2023/09/06 09:54:45;;;;;;;6.15;5.15;;;;;;;23.80;100.00;96152.97;5105662;27;20471;-69
2023/09/06 09:57:12;;;;;;;5.85;5.28;;;;;;;23.97;100.00;96148.72;5109154;27;20068;-69
2023/09/06 09:59:43;;;;;;;6.28;4.57;;;;;;;24.12;100.00;96143.09;5107720;27;20024;-69
2023/09/06 10:02:15;;;;;;;5.55;4.82;;;;;;;24.24;100.00;96137.84;5114300;27;20032;-69
2023/09/06 10:04:42;;;;;;;6.55;5.50;;;;;;;24.27;100.00;96131.19;5108718;27;20471;-69
2023/09/06 10:07:09;;;;;;;5.55;5.07;;;;;;;24.35;100.00;96143.56;5113539;27;20024;-69
2023/09/06 10:09:38;;;;;;;7.22;5.32;;;;;;;24.28;100.00;96140.91;5105829;27;20060;-69
2023/09/06 10:12:07;;;;;;;6.00;5.40;;;;;;;24.27;100.00;96132.03;5117045;27;20128;-69
2023/09/06 10:14:33;;;;;;;5.95;4.82;;;;;;;24.27;100.00;96137.41;5108751;27;20019;-69
2023/09/06 10:17:00;;;;;;;5.50;4.57;;;;;;;24.60;100.00;96130.09;5100686;27;20054;-69
2023/09/06 10:19:27;;;;;;;5.32;4.93;;;;;;;24.66;100.00;96131.91;5084774;27;20408;-69
2023/09/06 10:21:53;;;;;;;5.95;4.90;;;;;;;24.75;100.00;96127.09;5109532;27;20424;-69
2023/09/06 10:24:19;;;;;;;5.38;4.82;;;;;;;24.85;100.00;96132.78;5117107;27;20037;-69
2023/09/06 10:26:47;;;;;;;8.75;5.30;;;;;;;25.13;100.00;96133.34;5104267;27;20688;-69
2023/09/06 10:29:19;;;;;;;8.25;5.10;;;;;;;25.21;100.00;96129.53;5112851;27;20024;-69
2023/09/06 10:31:49;;;;;;;6.82;5.10;;;;;;;25.16;100.00;96138.28;5113173;27;20043;-68
2023/09/06 10:34:15;;;;;;;10.75;5.05;;;;;;;25.33;100.00;96130.44;5112500;27;20034;-69
2023/09/06 10:36:53;;;;;;;12.85;4.75;;;;;;;25.46;100.00;96126.78;5113270;27;20024;-69
2023/09/06 10:39:21;;;;;;;7.22;5.50;;;;;;;25.43;100.00;96136.13;5107854;27;20103;-68
2023/09/06 10:42:11;;;;;;;5.95;5.28;;;;;;;25.52;100.00;96131.28;5114431;27;20043;-68
2023/09/06 10:44:55;;;;;;;5.75;5.20;;;;;;;25.64;100.00;96128.63;5109160;27;20019;-69
2023/09/06 10:47:33;;;;;;;6.68;4.80;;;;;;;25.85;100.00;96134.59;5124992;27;20059;-69
2023/09/06 10:50:12;;;;;;;6.50;4.63;;;;;;;25.95;100.00;96123.25;5107574;27;20019;-69
2023/09/06 10:52:40;;;;;;;6.00;5.35;;;;;;;26.13;100.00;96119.66;5110095;27;20038;-70
2023/09/06 10:55:13;;;;;;;5.45;4.97;;;;;;;26.28;100.00;96122.78;5113354;27;20097;-69
2023/09/06 10:57:57;;;;;;;7.95;5.38;;;;;;;26.52;100.00;96114.72;5112714;27;20439;-69
2023/09/06 11:00:27;;;;;;;7.47;4.90;;;;;;;26.61;100.00;96120.59;5102838;27;20027;-69
2023/09/06 11:03:08;;;;;;;6.13;5.35;;;;;;;26.88;100.00;96115.59;5104635;27;20507;-69
2023/09/06 11:05:37;;;;;;;5.25;4.68;;;;;;;27.16;100.00;96116.72;5109851;27;20028;-69
2023/09/06 11:08:04;;;;;;;7.03;5.05;;;;;;;27.55;100.00;96074.84;5106293;27;20035;-69
2023/09/06 11:10:30;;;;;;;5.95;4.63;;;;;;;27.46;100.00;96075.16;5106166;27;20024;-70
2023/09/06 11:12:57;;;;;;;5.15;4.65;;;;;;;27.55;100.00;96075.63;5098223;27;20384;-70
2023/09/06 11:15:23;;;;;;;5.55;4.82;;;;;;;27.72;100.00;96072.16;5113742;27;20042;-69
2023/09/06 11:17:49;;;;;;;7.03;4.60;;;;;;;27.87;100.00;96069.75;5120019;27;20569;-69
2023/09/06 11:20:16;;;;;;;8.30;4.40;;;;;;;28.03;100.00;96065.44;5112621;28;20035;-70
2023/09/06 11:22:53;;;;;;;9.13;5.15;;;;;;;27.95;100.00;96073.13;5108329;27;20023;-70
2023/09/06 11:25:21;;;;;;;6.90;5.22;;;;;;;28.21;100.00;96060.88;5099872;27;20081;-70